sensor_id;sensor_type;location;lat;lon;timestamp;pressure;altitude;pressure_sealevel;temperature;humidity
8286;BME280;4181;43.416;24.598;2023-10-31T00:01:58;100129.44;;;15.93;100.00
8286;BME280;4181;43.416;24.598;2023-10-31T00:04:24;100123.94;;;15.93;100.00
8286;BME280;4181;43.416;24.598;2023-10-31T00:06:50;100124.66;;;15.70;100.00
8286;BME280;4181;43.416;24.598;2023-10-31T00:09:16;100113.88;;;15.79;100.00
8286;BME280;4181;43.416;24.598;2023-10-31T00:11:41;100106.09;;;15.86;100.00
8286;BME280;4181;43.416;24.598;2023-10-31T00:14:08;100098.53;;;16.01;100.00
8286;BME280;4181;43.416;24.598;2023-10-31T00:16:33;100103.47;;;16.04;100.00
8286;BME280;4181;43.416;24.598;2023-10-31T00:18:59;100102.28;;;15.82;100.00
8286;BME280;4181;43.416;24.598;2023-10-31T00:21:24;100099.94;;;15.65;100.00
8286;BME280;4181;43.416;24.598;2023-10-31T00:23:50;100090.88;;;15.60;100.00
8286;BME280;4181;43.416;24.598;2023-10-31T00:26:16;100101.03;;;15.59;100.00
8286;BME280;4181;43.416;24.598;2023-10-31T00:28:41;100099.16;;;15.55;100.00
8286;BME280;4181;43.416;24.598;2023-10-31T00:31:07;100101.88;;;15.60;100.00
8286;BME280;4181;43.416;24.598;2023-10-31T00:33:37;100082.19;;;15.38;100.00
8286;BME280;4181;43.416;24.598;2023-10-31T00:36:03;100089.06;;;15.45;100.00
8286;BME280;4181;43.416;24.598;2023-10-31T00:38:29;100081.25;;;15.57;100.00
8286;BME280;4181;43.416;24.598;2023-10-31T00:40:54;100070.50;;;15.61;100.00
8286;BME280;4181;43.416;24.598;2023-10-31T00:43:20;100067.44;;;15.67;100.00
8286;BME280;4181;43.416;24.598;2023-10-31T00:45:45;100088.34;;;15.68;100.00
8286;BME280;4181;43.416;24.598;2023-10-31T00:48:11;100073.97;;;15.33;100.00
8286;BME280;4181;43.416;24.598;2023-10-31T00:50:38;100087.16;;;15.31;100.00
8286;BME280;4181;43.416;24.598;2023-10-31T00:53:03;100080.66;;;15.16;100.00
8286;BME280;4181;43.416;24.598;2023-10-31T00:55:29;100078.06;;;14.81;100.00
8286;BME280;4181;43.416;24.598;2023-10-31T00:57:55;100066.25;;;14.76;100.00
8286;BME280;4181;43.416;24.598;2023-10-31T01:00:20;100062.38;;;14.87;100.00
8286;BME280;4181;43.416;24.598;2023-10-31T01:02:46;100072.78;;;14.95;100.00
8286;BME280;4181;43.416;24.598;2023-10-31T01:05:11;100068.72;;;14.77;100.00
8286;BME280;4181;43.416;24.598;2023-10-31T01:07:37;100071.78;;;14.66;100.00
8286;BME280;4181;43.416;24.598;2023-10-31T01:10:03;100074.41;;;14.96;100.00
8286;BME280;4181;43.416;24.598;2023-10-31T01:12:29;100061.22;;;14.98;100.00
8286;BME280;4181;43.416;24.598;2023-10-31T01:14:56;100061.91;;;14.65;100.00
8286;BME280;4181;43.416;24.598;2023-10-31T01:17:21;100060.56;;;14.57;100.00
8286;BME280;4181;43.416;24.598;2023-10-31T01:19:47;100044.34;;;14.56;100.00
8286;BME280;4181;43.416;24.598;2023-10-31T01:22:12;100059.25;;;14.40;100.00
8286;BME280;4181;43.416;24.598;2023-10-31T01:24:38;100062.47;;;14.62;100.00
8286;BME280;4181;43.416;24.598;2023-10-31T01:27:03;100067.06;;;14.81;100.00
8286;BME280;4181;43.416;24.598;2023-10-31T01:29:29;100078.81;;;15.02;100.00
8286;BME280;4181;43.416;24.598;2023-10-31T01:31:55;100071.88;;;15.14;100.00
8286;BME280;4181;43.416;24.598;2023-10-31T01:34:21;100063.06;;;15.17;100.00
8286;BME280;4181;43.416;24.598;2023-10-31T01:36:46;100053.16;;;15.16;100.00
8286;BME280;4181;43.416;24.598;2023-10-31T01:39:12;100058.06;;;15.24;100.00
8286;BME280;4181;43.416;24.598;2023-10-31T01:41:41;100050.72;;;15.15;100.00
8286;BME280;4181;43.416;24.598;2023-10-31T01:44:07;100054.06;;;15.07;100.00
8286;BME280;4181;43.416;24.598;2023-10-31T01:46:33;100049.75;;;14.86;100.00
8286;BME280;4181;43.416;24.598;2023-10-31T01:48:58;100068.31;;;15.09;100.00
8286;BME280;4181;43.416;24.598;2023-10-31T01:51:24;100058.41;;;15.13;100.00
8286;BME280;4181;43.416;24.598;2023-10-31T01:53:49;100054.34;;;15.00;100.00
8286;BME280;4181;43.416;24.598;2023-10-31T01:56:15;100076.16;;;14.82;100.00
8286;BME280;4181;43.416;24.598;2023-10-31T01:58:40;100069.50;;;14.88;100.00
8286;BME280;4181;43.416;24.598;2023-10-31T02:01:08;100052.50;;;14.86;100.00
8286;BME280;4181;43.416;24.598;2023-10-31T02:03:34;100052.97;;;15.03;100.00
8286;BME280;4181;43.416;24.598;2023-10-31T02:05:59;100075.41;;;15.20;100.00
8286;BME280;4181;43.416;24.598;2023-10-31T02:08:25;100056.03;;;14.91;100.00
8286;BME280;4181;43.416;24.598;2023-10-31T02:10:51;100068.16;;;14.80;100.00
8286;BME280;4181;43.416;24.598;2023-10-31T02:13:18;100072.28;;;14.83;100.00
8286;BME280;4181;43.416;24.598;2023-10-31T02:15:44;100070.38;;;14.83;100.00
8286;BME280;4181;43.416;24.598;2023-10-31T02:18:10;100078.66;;;14.68;100.00
8286;BME280;4181;43.416;24.598;2023-10-31T02:20:36;100074.03;;;14.49;100.00
8286;BME280;4181;43.416;24.598;2023-10-31T02:23:02;100065.78;;;14.49;100.00
8286;BME280;4181;43.416;24.598;2023-10-31T02:25:28;100076.72;;;14.64;100.00
8286;BME280;4181;43.416;24.598;2023-10-31T02:27:54;100057.53;;;14.59;100.00
8286;BME280;4181;43.416;24.598;2023-10-31T02:30:19;100067.97;;;14.67;100.00
8286;BME280;4181;43.416;24.598;2023-10-31T02:32:45;100070.97;;;14.65;100.00
8286;BME280;4181;43.416;24.598;2023-10-31T02:35:10;100080.34;;;14.24;100.00
8286;BME280;4181;43.416;24.598;2023-10-31T02:37:36;100071.88;;;14.31;100.00
8286;BME280;4181;43.416;24.598;2023-10-31T02:40:02;100074.03;;;14.19;100.00
8286;BME280;4181;43.416;24.598;2023-10-31T02:42:28;100074.09;;;14.09;100.00
8286;BME280;4181;43.416;24.598;2023-10-31T02:44:54;100059.81;;;13.96;100.00
8286;BME280;4181;43.416;24.598;2023-10-31T02:47:19;100061.44;;;13.97;100.00
8286;BME280;4181;43.416;24.598;2023-10-31T02:49:45;100062.28;;;14.08;100.00
8286;BME280;4181;43.416;24.598;2023-10-31T02:52:11;100047.75;;;13.82;100.00
8286;BME280;4181;43.416;24.598;2023-10-31T02:54:36;100041.69;;;13.65;100.00
8286;BME280;4181;43.416;24.598;2023-10-31T02:57:03;100040.06;;;13.49;100.00
8286;BME280;4181;43.416;24.598;2023-10-31T02:59:28;100047.16;;;13.50;100.00
8286;BME280;4181;43.416;24.598;2023-10-31T03:01:56;100050.75;;;13.46;100.00
8286;BME280;4181;43.416;24.598;2023-10-31T03:04:22;100030.19;;;13.48;100.00
8286;BME280;4181;43.416;24.598;2023-10-31T03:06:48;100029.66;;;13.71;100.00
8286;BME280;4181;43.416;24.598;2023-10-31T03:09:13;100037.59;;;13.93;100.00
8286;BME280;4181;43.416;24.598;2023-10-31T03:11:39;100041.69;;;14.00;100.00
8286;BME280;4181;43.416;24.598;2023-10-31T03:14:04;100038.66;;;14.07;100.00
8286;BME280;4181;43.416;24.598;2023-10-31T03:16:30;100057.34;;;14.25;100.00
8286;BME280;4181;43.416;24.598;2023-10-31T03:18:56;100053.19;;;14.23;100.00
8286;BME280;4181;43.416;24.598;2023-10-31T03:21:21;100051.56;;;14.17;100.00
8286;BME280;4181;43.416;24.598;2023-10-31T03:23:48;100051.31;;;14.28;100.00
8286;BME280;4181;43.416;24.598;2023-10-31T03:26:17;100049.34;;;14.39;100.00
8286;BME280;4181;43.416;24.598;2023-10-31T03:28:43;100020.28;;;14.13;100.00
8286;BME280;4181;43.416;24.598;2023-10-31T03:31:12;100050.75;;;14.26;100.00
8286;BME280;4181;43.416;24.598;2023-10-31T03:33:38;100037.00;;;14.21;100.00
8286;BME280;4181;43.416;24.598;2023-10-31T03:36:04;100046.63;;;14.29;100.00
8286;BME280;4181;43.416;24.598;2023-10-31T03:38:31;100034.00;;;14.18;100.00
8286;BME280;4181;43.416;24.598;2023-10-31T03:40:56;100037.88;;;13.96;100.00
8286;BME280;4181;43.416;24.598;2023-10-31T03:43:22;100043.91;;;13.93;100.00
8286;BME280;4181;43.416;24.598;2023-10-31T03:45:48;100012.34;;;14.01;100.00
8286;BME280;4181;43.416;24.598;2023-10-31T03:48:15;100006.56;;;14.13;100.00
8286;BME280;4181;43.416;24.598;2023-10-31T03:50:40;100026.31;;;14.40;100.00
8286;BME280;4181;43.416;24.598;2023-10-31T03:53:06;100003.81;;;14.28;100.00
8286;BME280;4181;43.416;24.598;2023-10-31T03:55:32;100010.41;;;14.27;100.00
8286;BME280;4181;43.416;24.598;2023-10-31T03:57:57;99997.28;;;13.93;100.00
8286;BME280;4181;43.416;24.598;2023-10-31T04:00:23;100021.41;;;14.07;100.00
8286;BME280;4181;43.416;24.598;2023-10-31T04:02:48;100002.19;;;14.07;100.00
8286;BME280;4181;43.416;24.598;2023-10-31T04:05:14;100001.34;;;14.16;100.00
8286;BME280;4181;43.416;24.598;2023-10-31T04:07:40;100000.78;;;14.29;100.00
8286;BME280;4181;43.416;24.598;2023-10-31T04:10:06;99986.50;;;14.17;100.00
8286;BME280;4181;43.416;24.598;2023-10-31T04:12:31;99998.31;;;14.23;100.00
8286;BME280;4181;43.416;24.598;2023-10-31T04:14:57;99974.75;;;14.12;100.00
8286;BME280;4181;43.416;24.598;2023-10-31T04:17:22;99966.78;;;14.15;100.00
8286;BME280;4181;43.416;24.598;2023-10-31T04:19:48;99957.72;;;14.15;100.00
8286;BME280;4181;43.416;24.598;2023-10-31T04:22:13;99977.75;;;14.35;100.00
8286;BME280;4181;43.416;24.598;2023-10-31T04:24:39;99984.28;;;14.44;100.00
8286;BME280;4181;43.416;24.598;2023-10-31T04:27:05;99982.91;;;14.47;100.00
8286;BME280;4181;43.416;24.598;2023-10-31T04:29:32;99985.16;;;14.30;100.00
8286;BME280;4181;43.416;24.598;2023-10-31T04:31:58;99985.16;;;14.35;100.00
8286;BME280;4181;43.416;24.598;2023-10-31T04:34:23;99977.44;;;14.42;100.00
8286;BME280;4181;43.416;24.598;2023-10-31T04:36:48;99958.50;;;14.40;100.00
8286;BME280;4181;43.416;24.598;2023-10-31T04:39:14;99958.69;;;14.54;100.00
8286;BME280;4181;43.416;24.598;2023-10-31T04:41:40;99965.03;;;14.49;100.00
8286;BME280;4181;43.416;24.598;2023-10-31T04:44:06;99960.66;;;14.53;100.00
8286;BME280;4181;43.416;24.598;2023-10-31T04:46:31;99959.78;;;14.63;100.00
8286;BME280;4181;43.416;24.598;2023-10-31T04:48:58;99961.63;;;14.72;100.00
8286;BME280;4181;43.416;24.598;2023-10-31T04:51:24;99923.56;;;14.56;100.00
8286;BME280;4181;43.416;24.598;2023-10-31T04:53:49;99933.72;;;14.60;100.00
8286;BME280;4181;43.416;24.598;2023-10-31T04:56:15;99961.41;;;14.64;100.00
8286;BME280;4181;43.416;24.598;2023-10-31T04:58:44;99953.75;;;14.56;100.00
8286;BME280;4181;43.416;24.598;2023-10-31T05:01:11;99953.72;;;14.66;100.00
8286;BME280;4181;43.416;24.598;2023-10-31T05:03:37;99952.91;;;14.65;100.00
8286;BME280;4181;43.416;24.598;2023-10-31T05:06:02;99938.38;;;14.60;100.00
8286;BME280;4181;43.416;24.598;2023-10-31T05:08:29;99951.34;;;14.98;100.00
8286;BME280;4181;43.416;24.598;2023-10-31T05:10:55;99928.78;;;15.01;100.00
8286;BME280;4181;43.416;24.598;2023-10-31T05:13:21;99962.63;;;15.40;100.00
8286;BME280;4181;43.416;24.598;2023-10-31T05:15:46;99965.41;;;15.69;100.00
8286;BME280;4181;43.416;24.598;2023-10-31T05:18:12;99974.16;;;15.99;100.00
8286;BME280;4181;43.416;24.598;2023-10-31T05:20:37;99981.38;;;16.19;100.00
8286;BME280;4181;43.416;24.598;2023-10-31T05:23:03;99960.59;;;16.31;100.00
8286;BME280;4181;43.416;24.598;2023-10-31T05:25:28;99991.56;;;16.71;100.00
8286;BME280;4181;43.416;24.598;2023-10-31T05:27:54;99991.56;;;16.89;100.00
8286;BME280;4181;43.416;24.598;2023-10-31T05:30:19;99980.25;;;16.91;100.00
8286;BME280;4181;43.416;24.598;2023-10-31T05:32:44;100003.00;;;17.01;100.00
8286;BME280;4181;43.416;24.598;2023-10-31T05:35:10;100004.44;;;17.17;100.00
8286;BME280;4181;43.416;24.598;2023-10-31T05:37:36;99998.97;;;17.31;100.00
8286;BME280;4181;43.416;24.598;2023-10-31T05:40:01;99954.50;;;17.19;100.00
8286;BME280;4181;43.416;24.598;2023-10-31T05:42:27;99985.66;;;17.56;100.00
8286;BME280;4181;43.416;24.598;2023-10-31T05:44:56;100000.38;;;17.84;100.00
8286;BME280;4181;43.416;24.598;2023-10-31T05:47:22;100007.50;;;18.17;100.00
8286;BME280;4181;43.416;24.598;2023-10-31T05:49:48;100010.69;;;18.38;100.00
8286;BME280;4181;43.416;24.598;2023-10-31T05:52:13;100013.59;;;18.73;100.00
8286;BME280;4181;43.416;24.598;2023-10-31T05:54:40;99988.41;;;18.88;100.00
8286;BME280;4181;43.416;24.598;2023-10-31T05:57:05;99991.13;;;19.16;100.00
8286;BME280;4181;43.416;24.598;2023-10-31T05:59:30;99997.84;;;19.37;100.00
8286;BME280;4181;43.416;24.598;2023-10-31T06:01:57;99998.88;;;19.41;100.00
8286;BME280;4181;43.416;24.598;2023-10-31T06:04:23;100009.09;;;19.76;100.00
8286;BME280;4181;43.416;24.598;2023-10-31T06:06:50;99989.06;;;19.79;100.00
8286;BME280;4181;43.416;24.598;2023-10-31T06:09:16;100011.81;;;19.98;100.00
8286;BME280;4181;43.416;24.598;2023-10-31T06:11:42;100001.50;;;19.90;100.00
8286;BME280;4181;43.416;24.598;2023-10-31T06:14:08;99993.97;;;20.04;100.00
8286;BME280;4181;43.416;24.598;2023-10-31T06:16:40;99988.84;;;20.20;100.00
8286;BME280;4181;43.416;24.598;2023-10-31T06:19:06;99998.81;;;20.51;100.00
8286;BME280;4181;43.416;24.598;2023-10-31T06:21:32;100013.44;;;20.91;100.00
8286;BME280;4181;43.416;24.598;2023-10-31T06:23:57;100009.28;;;21.19;100.00
8286;BME280;4181;43.416;24.598;2023-10-31T06:26:23;99980.91;;;21.39;100.00
8286;BME280;4181;43.416;24.598;2023-10-31T06:28:48;99989.56;;;21.55;100.00
8286;BME280;4181;43.416;24.598;2023-10-31T06:31:14;99998.84;;;21.67;100.00
8286;BME280;4181;43.416;24.598;2023-10-31T06:33:39;99990.84;;;21.74;100.00
8286;BME280;4181;43.416;24.598;2023-10-31T06:36:05;99991.03;;;21.44;100.00
8286;BME280;4181;43.416;24.598;2023-10-31T06:38:32;99984.00;;;21.38;100.00
8286;BME280;4181;43.416;24.598;2023-10-31T06:40:57;99973.53;;;21.69;100.00
8286;BME280;4181;43.416;24.598;2023-10-31T06:43:23;99988.22;;;21.95;100.00
8286;BME280;4181;43.416;24.598;2023-10-31T06:45:48;99965.50;;;22.01;100.00
8286;BME280;4181;43.416;24.598;2023-10-31T06:48:13;99966.31;;;22.02;100.00
8286;BME280;4181;43.416;24.598;2023-10-31T06:50:39;99981.34;;;22.09;100.00
8286;BME280;4181;43.416;24.598;2023-10-31T06:53:04;99955.00;;;22.15;100.00
8286;BME280;4181;43.416;24.598;2023-10-31T06:55:31;99966.78;;;22.50;100.00
8286;BME280;4181;43.416;24.598;2023-10-31T06:57:57;99959.78;;;22.82;100.00
8286;BME280;4181;43.416;24.598;2023-10-31T07:00:23;99955.72;;;23.08;100.00
8286;BME280;4181;43.416;24.598;2023-10-31T07:02:49;99951.97;;;23.45;100.00
8286;BME280;4181;43.416;24.598;2023-10-31T07:05:14;99939.22;;;23.77;100.00
8286;BME280;4181;43.416;24.598;2023-10-31T07:07:40;99943.41;;;24.04;100.00
8286;BME280;4181;43.416;24.598;2023-10-31T07:10:06;99938.56;;;24.25;100.00
8286;BME280;4181;43.416;24.598;2023-10-31T07:12:32;99950.53;;;24.37;100.00
8286;BME280;4181;43.416;24.598;2023-10-31T07:14:58;99942.78;;;24.55;100.00
8286;BME280;4181;43.416;24.598;2023-10-31T07:17:24;99950.47;;;24.82;100.00
8286;BME280;4181;43.416;24.598;2023-10-31T07:19:50;99935.53;;;25.02;100.00
8286;BME280;4181;43.416;24.598;2023-10-31T07:22:15;99933.88;;;25.25;100.00
8286;BME280;4181;43.416;24.598;2023-10-31T07:24:41;99927.00;;;25.62;100.00
8286;BME280;4181;43.416;24.598;2023-10-31T07:27:08;99922.63;;;26.04;100.00
8286;BME280;4181;43.416;24.598;2023-10-31T07:29:39;99924.47;;;26.44;100.00
8286;BME280;4181;43.416;24.598;2023-10-31T07:32:05;99918.41;;;26.73;100.00
8286;BME280;4181;43.416;24.598;2023-10-31T07:34:31;99917.06;;;27.01;100.00
8286;BME280;4181;43.416;24.598;2023-10-31T07:36:56;99898.13;;;27.14;100.00
8286;BME280;4181;43.416;24.598;2023-10-31T07:39:22;99895.38;;;27.33;100.00
8286;BME280;4181;43.416;24.598;2023-10-31T07:41:47;99896.56;;;27.51;100.00
8286;BME280;4181;43.416;24.598;2023-10-31T07:44:13;99897.03;;;27.76;100.00
8286;BME280;4181;43.416;24.598;2023-10-31T07:46:38;99889.06;;;27.97;100.00
8286;BME280;4181;43.416;24.598;2023-10-31T07:49:05;99880.09;;;28.10;100.00
8286;BME280;4181;43.416;24.598;2023-10-31T07:51:31;99885.25;;;28.31;100.00
8286;BME280;4181;43.416;24.598;2023-10-31T07:53:56;99889.38;;;28.37;100.00
8286;BME280;4181;43.416;24.598;2023-10-31T07:56:23;99871.84;;;28.43;100.00
8286;BME280;4181;43.416;24.598;2023-10-31T07:58:51;99883.38;;;28.61;100.00
8286;BME280;4181;43.416;24.598;2023-10-31T08:01:17;99867.47;;;28.69;100.00
8286;BME280;4181;43.416;24.598;2023-10-31T08:03:43;99863.78;;;28.65;100.00
8286;BME280;4181;43.416;24.598;2023-10-31T08:06:10;99863.00;;;28.94;100.00
8286;BME280;4181;43.416;24.598;2023-10-31T08:08:36;99838.16;;;28.96;100.00
8286;BME280;4181;43.416;24.598;2023-10-31T08:11:02;99855.09;;;29.03;100.00
8286;BME280;4181;43.416;24.598;2023-10-31T08:13:29;99848.09;;;29.16;100.00
8286;BME280;4181;43.416;24.598;2023-10-31T08:15:54;99831.13;;;29.09;100.00
8286;BME280;4181;43.416;24.598;2023-10-31T08:18:22;99830.56;;;29.26;100.00
8286;BME280;4181;43.416;24.598;2023-10-31T08:20:48;99825.81;;;29.33;100.00
8286;BME280;4181;43.416;24.598;2023-10-31T08:23:18;99814.19;;;29.35;100.00
8286;BME280;4181;43.416;24.598;2023-10-31T08:25:44;99799.34;;;29.38;100.00
8286;BME280;4181;43.416;24.598;2023-10-31T08:28:10;99809.22;;;29.58;100.00
8286;BME280;4181;43.416;24.598;2023-10-31T08:30:37;99803.97;;;29.56;100.00
8286;BME280;4181;43.416;24.598;2023-10-31T08:33:03;99806.44;;;29.61;100.00
8286;BME280;4181;43.416;24.598;2023-10-31T08:35:29;99799.47;;;29.48;100.00
8286;BME280;4181;43.416;24.598;2023-10-31T08:37:55;99798.22;;;29.42;100.00
8286;BME280;4181;43.416;24.598;2023-10-31T08:40:20;99791.50;;;29.54;100.00
8286;BME280;4181;43.416;24.598;2023-10-31T08:42:46;99787.63;;;29.65;100.00
8286;BME280;4181;43.416;24.598;2023-10-31T08:45:11;99776.47;;;29.76;100.00
8286;BME280;4181;43.416;24.598;2023-10-31T08:47:37;99766.13;;;29.84;100.00
8286;BME280;4181;43.416;24.598;2023-10-31T08:50:03;99756.50;;;29.88;100.00
8286;BME280;4181;43.416;24.598;2023-10-31T08:52:29;99750.88;;;29.88;100.00
8286;BME280;4181;43.416;24.598;2023-10-31T08:54:57;99740.47;;;29.92;100.00
8286;BME280;4181;43.416;24.598;2023-10-31T08:57:23;99747.47;;;30.12;100.00
8286;BME280;4181;43.416;24.598;2023-10-31T08:59:48;99732.19;;;30.17;100.00
8286;BME280;4181;43.416;24.598;2023-10-31T09:02:14;99721.06;;;30.31;100.00
8286;BME280;4181;43.416;24.598;2023-10-31T09:04:39;99724.78;;;30.45;100.00
8286;BME280;4181;43.416;24.598;2023-10-31T09:07:05;99703.13;;;30.63;100.00
8286;BME280;4181;43.416;24.598;2023-10-31T09:09:32;99712.47;;;30.78;100.00
8286;BME280;4181;43.416;24.598;2023-10-31T09:11:57;99713.22;;;30.71;100.00
8286;BME280;4181;43.416;24.598;2023-10-31T09:14:23;99710.22;;;30.36;100.00
8286;BME280;4181;43.416;24.598;2023-10-31T09:16:48;99706.22;;;30.37;100.00
8286;BME280;4181;43.416;24.598;2023-10-31T09:19:14;99697.38;;;30.35;100.00
8286;BME280;4181;43.416;24.598;2023-10-31T09:21:39;99680.56;;;30.56;100.00
8286;BME280;4181;43.416;24.598;2023-10-31T09:24:07;99714.72;;;30.51;100.00
8286;BME280;4181;43.416;24.598;2023-10-31T09:26:33;99711.00;;;30.30;100.00
8286;BME280;4181;43.416;24.598;2023-10-31T09:28:58;99716.50;;;30.12;100.00
8286;BME280;4181;43.416;24.598;2023-10-31T09:31:24;99688.16;;;30.42;100.00
8286;BME280;4181;43.416;24.598;2023-10-31T09:33:49;99684.56;;;30.48;100.00
8286;BME280;4181;43.416;24.598;2023-10-31T09:36:15;99709.94;;;29.94;100.00
8286;BME280;4181;43.416;24.598;2023-10-31T09:38:40;99718.00;;;29.52;100.00
8286;BME280;4181;43.416;24.598;2023-10-31T09:41:06;99717.06;;;29.77;100.00
8286;BME280;4181;43.416;24.598;2023-10-31T09:43:32;99705.81;;;29.81;100.00
8286;BME280;4181;43.416;24.598;2023-10-31T09:45:58;99693.91;;;30.02;100.00
8286;BME280;4181;43.416;24.598;2023-10-31T09:48:26;99683.28;;;30.32;100.00
8286;BME280;4181;43.416;24.598;2023-10-31T09:50:52;99666.13;;;30.68;100.00
8286;BME280;4181;43.416;24.598;2023-10-31T09:53:19;99664.19;;;30.83;100.00
8286;BME280;4181;43.416;24.598;2023-10-31T09:55:46;99661.22;;;30.44;100.00
8286;BME280;4181;43.416;24.598;2023-10-31T09:58:12;99661.97;;;30.34;100.00
8286;BME280;4181;43.416;24.598;2023-10-31T10:00:38;99658.59;;;30.15;100.00
8286;BME280;4181;43.416;24.598;2023-10-31T10:03:07;99683.44;;;29.99;100.00
8286;BME280;4181;43.416;24.598;2023-10-31T10:05:35;99671.38;;;29.98;100.00
8286;BME280;4181;43.416;24.598;2023-10-31T10:08:00;99664.13;;;29.97;100.00
8286;BME280;4181;43.416;24.598;2023-10-31T10:10:27;99649.59;;;30.60;100.00
8286;BME280;4181;43.416;24.598;2023-10-31T10:12:55;99632.50;;;31.18;100.00
8286;BME280;4181;43.416;24.598;2023-10-31T10:15:21;99630.81;;;30.85;100.00
8286;BME280;4181;43.416;24.598;2023-10-31T10:17:53;99648.03;;;30.62;100.00
8286;BME280;4181;43.416;24.598;2023-10-31T10:20:19;99641.88;;;30.36;100.00
8286;BME280;4181;43.416;24.598;2023-10-31T10:22:45;99635.13;;;30.54;100.00
8286;BME280;4181;43.416;24.598;2023-10-31T10:25:13;99636.88;;;30.12;100.00
8286;BME280;4181;43.416;24.598;2023-10-31T10:27:41;99644.88;;;29.99;100.00
8286;BME280;4181;43.416;24.598;2023-10-31T10:30:08;99646.19;;;29.65;100.00
8286;BME280;4181;43.416;24.598;2023-10-31T10:32:34;99643.06;;;29.73;100.00
8286;BME280;4181;43.416;24.598;2023-10-31T10:34:59;99634.19;;;29.68;100.00
8286;BME280;4181;43.416;24.598;2023-10-31T10:37:29;99640.66;;;29.72;100.00
8286;BME280;4181;43.416;24.598;2023-10-31T10:39:56;99626.78;;;30.00;100.00
8286;BME280;4181;43.416;24.598;2023-10-31T10:44:58;99611.06;;;29.92;100.00
8286;BME280;4181;43.416;24.598;2023-10-31T10:47:28;99595.38;;;29.88;100.00
8286;BME280;4181;43.416;24.598;2023-10-31T10:49:55;99611.28;;;29.69;100.00
8286;BME280;4181;43.416;24.598;2023-10-31T10:52:28;99607.69;;;29.69;100.00
8286;BME280;4181;43.416;24.598;2023-10-31T11:00:10;99578.16;;;30.03;100.00
8286;BME280;4181;43.416;24.598;2023-10-31T11:02:39;99572.31;;;30.43;100.00
8286;BME280;4181;43.416;24.598;2023-10-31T11:05:08;99575.34;;;30.07;100.00
8286;BME280;4181;43.416;24.598;2023-10-31T11:07:36;99576.94;;;30.01;100.00
8286;BME280;4181;43.416;24.598;2023-10-31T11:10:02;99564.63;;;29.61;100.00
8286;BME280;4181;43.416;24.598;2023-10-31T11:12:30;99571.94;;;29.73;100.00
8286;BME280;4181;43.416;24.598;2023-10-31T11:15:01;99542.09;;;29.58;100.00
8286;BME280;4181;43.416;24.598;2023-10-31T11:17:31;99574.13;;;29.43;100.00
8286;BME280;4181;43.416;24.598;2023-10-31T11:19:58;99565.47;;;29.15;100.00
8286;BME280;4181;43.416;24.598;2023-10-31T11:22:24;99563.19;;;29.27;100.00
8286;BME280;4181;43.416;24.598;2023-10-31T11:24:50;99560.28;;;29.17;100.00
8286;BME280;4181;43.416;24.598;2023-10-31T11:27:17;99551.59;;;29.32;100.00
8286;BME280;4181;43.416;24.598;2023-10-31T11:29:43;99557.41;;;29.10;100.00
8286;BME280;4181;43.416;24.598;2023-10-31T11:32:10;99545.19;;;28.92;100.00
8286;BME280;4181;43.416;24.598;2023-10-31T11:34:38;99548.28;;;29.23;100.00
8286;BME280;4181;43.416;24.598;2023-10-31T11:42:43;99542.38;;;28.92;100.00
8286;BME280;4181;43.416;24.598;2023-10-31T11:45:09;99513.00;;;28.82;100.00
8286;BME280;4181;43.416;24.598;2023-10-31T11:47:51;99513.03;;;29.33;100.00
8286;BME280;4181;43.416;24.598;2023-10-31T11:50:17;99507.94;;;29.49;100.00
8286;BME280;4181;43.416;24.598;2023-10-31T11:52:43;99515.38;;;29.24;100.00
8286;BME280;4181;43.416;24.598;2023-10-31T11:55:12;99503.28;;;29.20;100.00
8286;BME280;4181;43.416;24.598;2023-10-31T11:57:39;99480.94;;;29.34;100.00
8286;BME280;4181;43.416;24.598;2023-10-31T12:00:05;99491.47;;;29.51;100.00
8286;BME280;4181;43.416;24.598;2023-10-31T12:02:33;99478.97;;;29.45;100.00
8286;BME280;4181;43.416;24.598;2023-10-31T12:05:12;99470.72;;;29.73;100.00
8286;BME280;4181;43.416;24.598;2023-10-31T12:07:44;99471.19;;;29.96;100.00
8286;BME280;4181;43.416;24.598;2023-10-31T12:10:11;99468.03;;;30.08;100.00
8286;BME280;4181;43.416;24.598;2023-10-31T12:12:37;99463.25;;;30.16;100.00
8286;BME280;4181;43.416;24.598;2023-10-31T12:15:07;99457.63;;;30.19;100.00
8286;BME280;4181;43.416;24.598;2023-10-31T12:17:33;99460.38;;;30.02;100.00
8286;BME280;4181;43.416;24.598;2023-10-31T12:20:05;99461.50;;;29.83;100.00
8286;BME280;4181;43.416;24.598;2023-10-31T12:22:32;99469.31;;;29.39;100.00
8286;BME280;4181;43.416;24.598;2023-10-31T12:25:05;99465.84;;;29.05;100.00
8286;BME280;4181;43.416;24.598;2023-10-31T12:27:51;99466.47;;;28.85;100.00
8286;BME280;4181;43.416;24.598;2023-10-31T12:30:22;99472.00;;;28.71;100.00
8286;BME280;4181;43.416;24.598;2023-10-31T12:32:55;99472.03;;;28.78;100.00
8286;BME280;4181;43.416;24.598;2023-10-31T12:35:23;99455.78;;;29.01;100.00
8286;BME280;4181;43.416;24.598;2023-10-31T12:37:50;99453.47;;;29.13;100.00
8286;BME280;4181;43.416;24.598;2023-10-31T12:40:19;99441.13;;;29.28;100.00
8286;BME280;4181;43.416;24.598;2023-10-31T12:42:47;99432.78;;;29.39;100.00
8286;BME280;4181;43.416;24.598;2023-10-31T12:45:16;99425.16;;;29.43;100.00
8286;BME280;4181;43.416;24.598;2023-10-31T12:47:44;99430.00;;;29.49;100.00
8286;BME280;4181;43.416;24.598;2023-10-31T12:50:14;99434.03;;;29.52;100.00
8286;BME280;4181;43.416;24.598;2023-10-31T12:55:16;99419.69;;;29.71;100.00
8286;BME280;4181;43.416;24.598;2023-10-31T12:57:42;99406.81;;;29.70;100.00
8286;BME280;4181;43.416;24.598;2023-10-31T13:00:12;99404.78;;;29.63;100.00
8286;BME280;4181;43.416;24.598;2023-10-31T13:02:41;99415.59;;;29.58;100.00
8286;BME280;4181;43.416;24.598;2023-10-31T13:05:14;99409.97;;;29.61;100.00
8286;BME280;4181;43.416;24.598;2023-10-31T13:07:50;99396.25;;;29.42;100.00
8286;BME280;4181;43.416;24.598;2023-10-31T13:10:18;99392.03;;;29.08;100.00